• Join FlightAware (Why Join?)
  • Login
  • US Flag 
03:57AM EST


 

Airport Tracker/Info


-or-


 

Live Flight TrackerFlight Track Log ✈ PDT4456 ✈ 02-Jun-2013 ✈ KSYR - KBOS

Flight Track Log - Related Links

Times and Time Zones

All times are in EDT time to prevent confusion due to time zone crossing. See the PDT4456 flight status page for this flight to view local times or setup timezone preferences in your user account.

Time Position Orientation Groundspeed Altitude Reporting Facility
EDT Latitude Longitude Course Direction KTS MPH feet Rate Location/Type
06:16PM 43.1100 -76.1206 196° South 106 122 900  Level Boston Center
06:17PM 43.0847 -76.1306 196° South 163 188 2,400 1,260 Climbing Boston Center
06:19PM 43.0486 -76.0828 136° Southeast 175 201 3,700 1,080 Climbing Boston Center
06:19PM 43.0297 -76.0250 114° Southeast 178 205 4,700 960 Climbing Boston Center
06:20PM 43.0108 -75.9586 111° Southeast 178 205 5,700 1,020 Climbing Boston Center
06:21PM 42.9919 -75.8978 113° Southeast 178 205 6,800 1,080 Climbing Boston Center
06:22PM 42.9686 -75.8397 119° Southeast 173 199 7,900 960 Climbing Boston Center
06:23PM 42.9350 -75.7839 129° Southeast 179 206 8,800 1,020 Climbing Boston Center
06:24PM 42.9008 -75.7394 136° Southeast 179 206 10,000 1,200 Climbing Boston Center
06:25PM 42.8708 -75.6897 129° Southeast 173 199 11,300 1,080 Climbing Boston Center
06:26PM 42.8389 -75.6369 130° Southeast 173 199 12,200 900 Climbing Boston Center
06:27PM 42.8053 -75.5786 128° Southeast 178 205 13,100 900 Climbing Boston Center
06:28PM 42.7733 -75.5233 128° Southeast 183 211 14,000 780 Climbing Boston Center
06:29PM 42.7714 -75.4383 92° East 196 226 14,700 720 Climbing Boston Center
06:30PM 42.7717 -75.3508 90° East 202 232 15,500 840 Climbing Boston Center
06:31PM 42.7678 -75.2600 93° East 222 255 16,400 660 Climbing Boston Center
06:33PM 42.7614 -75.1778 96° East 227 261 17,000 240 Climbing Boston Center
06:34PM 42.7536 -75.0642 95° East 239 275 17,000  Level Boston Center
06:35PM 42.7517 -74.9622 91° East 251 289 17,000  Level Boston Center
06:36PM 42.7478 -74.8603 93° East 261 300 17,000  Level Boston Center
06:37PM 42.7436 -74.7556 93° East 272 313 17,000  Level Boston Center
06:38PM 42.7456 -74.6539 88° East 272 313 17,000  Level Boston Center
06:39PM 42.7433 -74.5547 92° East 267 307 17,000  Level Boston Center
06:40PM 42.7453 -74.4558 88° East 274 315 17,000  Level Boston Center
06:41PM 42.7469 -74.3569 89° East 264 304 17,000  Level Boston Center
06:42PM 42.7486 -74.2553 89° East 264 304 17,000  Level Boston Center
06:43PM 42.7500 -74.1592 89° East 254 292 17,000  Level Boston Center
06:44PM 42.7453 -74.0658 94° East 254 292 17,000  Level Boston Center
06:45PM 42.7342 -73.9664 99° East 248 285 17,000  Level Boston Center
06:46PM 42.7269 -73.8675 96° East 258 297 17,000  Level Boston Center
06:47PM 42.7139 -73.7483 98° East 258 297 17,000  Level Boston Center
06:48PM 42.7028 -73.6239 97° East 266 306 17,000  Level Boston Center
06:49PM 42.6914 -73.5050 97° East 272 313 17,000  Level Boston Center
06:50PM 42.6817 -73.4117 98° East 272 313 17,000  Level Boston Center
06:51PM 42.6722 -73.3014 97° East 278 320 17,000  Level Boston Center
06:52PM 42.6625 -73.2108 98° East 273 314 17,000  Level Boston Center
06:53PM 42.6444 -73.0836 101° East 268 308 17,000  Level Boston Center
06:54PM 42.6344 -72.9961 99° East 263 303 17,000  Level Boston Center
06:55PM 42.6328 -72.9000 91° East 256 295 17,000  Level Boston Center
06:56PM 42.6250 -72.8011 96° East 256 295 17,000  Level Boston Center
06:57PM 42.6169 -72.7025 96° East 256 295 17,000  Level Boston Center
06:58PM 42.6067 -72.6064 98° East 256 295 17,100  Climbing Boston Center
07:00PM 42.5922 -72.5078 101° East 256 295 17,100 -240 Level Boston Center
07:01PM 42.5839 -72.3894 95° East 256 295 16,700 -960 Descending Boston Center
07:02PM 42.5711 -72.2878 100° East 256 295 15,200 -1,500 Descending Boston Center
07:03PM 42.5586 -72.1836 99° East 276 318 13,700 -1,560 Descending Boston Center
07:04PM 42.5497 -72.0653 96° East 282 325 12,100 -900 Descending Boston Center
07:05PM 42.5392 -71.9753 99° East 277 319 11,900 -540 Descending Boston Center
07:06PM 42.5261 -71.8711 100° East 268 308 11,100 -960 Descending Boston Center
07:07PM 42.5172 -71.7642 96° East 274 315 10,000 -960 Descending Boston Center
07:08PM 42.5083 -71.6628 97° East 274 315 9,100 -600 Descending Boston Center
07:08PM 42.5000 -71.5833 98° East 278 320 9,100 -120 Level KA90
07:09PM 42.4833 -71.4833 103° East 258 297 9,000 -540 Descending KA90
07:10PM 42.4833 -71.4000 90° East 271 312 8,100 -1,020 Descending KA90
07:11PM 42.4833 -71.2833 90° East 288 331 7,100 -1,020 Descending KA90
07:12PM 42.5000 -71.1667 79° East 292 336 6,000 -1,020 Descending KA90
07:13PM 42.5667 -71.1167 29° Northeast 276 318 5,000 -1,080 Descending KA90
07:14PM 42.5833 -71.0167 77° East 276 318 4,000 -1,020 Descending KA90
07:15PM 42.5667 -70.9333 105° East 222 255 3,000 -540 Descending KA90
07:16PM 42.5167 -70.9167 166° South 178 205 3,000 -540 Level KA90
07:17PM 42.4667 -70.9500 206° Southwest 167 192 2,000 -960 Descending KA90